createdAt,value
2017-08-20T08:00:58.612Z,60.00
2017-08-20T08:01:58.333Z,68.00
2017-08-20T08:03:51.250Z,64.00
2017-08-20T08:04:51.246Z,64.00
2017-08-20T08:06:44.511Z,72.00
2017-08-20T08:07:44.199Z,68.00
2017-08-20T08:09:37.143Z,88.00
2017-08-20T08:10:37.099Z,80.00
2017-08-20T08:12:30.513Z,72.00
2017-08-20T08:13:30.072Z,72.00
2017-08-20T08:15:23.023Z,92.00
2017-08-20T08:16:23.017Z,100.00
2017-08-20T08:18:16.341Z,88.00
2017-08-20T08:19:15.962Z,96.00
2017-08-20T08:21:08.940Z,108.00
2017-08-20T08:22:08.940Z,96.00
2017-08-20T08:24:02.190Z,84.00
2017-08-20T08:25:01.866Z,80.00
2017-08-20T08:26:55.312Z,72.00
2017-08-20T08:27:55.304Z,72.00
2017-08-20T08:29:48.318Z,76.00
2017-08-20T08:30:48.239Z,80.00
2017-08-20T08:32:41.259Z,96.00
2017-08-20T08:33:41.210Z,96.00
2017-08-20T08:35:34.433Z,92.00
2017-08-20T08:36:34.132Z,88.00
2017-08-20T08:38:27.123Z,92.00
2017-08-20T08:39:27.087Z,96.00
2017-08-20T08:41:20.682Z,92.00
2017-08-20T08:42:20.677Z,96.00
2017-08-20T08:44:13.705Z,96.00
2017-08-20T08:45:13.630Z,132.00
2017-08-20T08:47:06.609Z,108.00
2017-08-20T08:48:06.579Z,108.00
2017-08-20T08:49:59.615Z,100.00
2017-08-20T08:50:59.528Z,100.00
2017-08-20T08:52:52.813Z,104.00
2017-08-20T08:53:52.510Z,104.00
2017-08-20T08:55:45.436Z,112.00
2017-08-20T08:56:45.404Z,120.00
2017-08-20T08:58:39.703Z,112.00
2017-08-20T08:59:39.338Z,108.00
2017-08-20T09:01:32.838Z,108.00
2017-08-20T09:02:32.781Z,108.00
2017-08-20T09:04:26.120Z,108.00
2017-08-20T09:05:25.738Z,104.00
2017-08-20T09:07:18.716Z,96.00
2017-08-20T09:08:18.678Z,92.00
2017-08-20T09:10:12.004Z,92.00
2017-08-20T09:11:11.632Z,92.00
2017-08-20T09:13:04.621Z,84.00
2017-08-20T09:14:04.592Z,80.00
2017-08-20T09:15:58.391Z,88.00
2017-08-20T09:16:58.069Z,84.00
2017-08-20T09:18:51.024Z,80.00
2017-08-20T09:19:50.962Z,84.00
2017-08-20T09:21:44.718Z,88.00
2017-08-20T09:22:44.414Z,92.00
2017-08-20T09:24:37.409Z,92.00
2017-08-20T09:25:37.364Z,92.00
2017-08-20T09:27:30.496Z,96.00
2017-08-20T09:28:30.590Z,100.00
2017-08-20T09:30:23.263Z,156.00
2017-08-20T09:31:23.251Z,136.00
2017-08-20T09:33:16.335Z,120.00
2017-08-20T09:34:16.236Z,112.00
2017-08-20T09:36:09.217Z,124.00
2017-08-20T09:37:09.192Z,124.00
2017-08-20T09:39:02.182Z,120.00
2017-08-20T09:40:02.134Z,116.00
2017-08-20T09:41:55.106Z,120.00
2017-08-20T09:42:55.073Z,112.00
2017-08-20T09:44:48.115Z,112.00
2017-08-20T09:45:48.015Z,120.00
2017-08-20T09:47:40.974Z,120.00
2017-08-20T09:48:41.120Z,116.00
2017-08-20T09:50:33.931Z,116.00
2017-08-20T09:51:33.921Z,112.00
2017-08-20T09:53:27.397Z,104.00
2017-08-20T09:54:27.370Z,100.00
2017-08-20T09:56:20.404Z,96.00
2017-08-20T09:57:20.313Z,96.00
2017-08-20T09:59:13.294Z,100.00
2017-08-20T10:00:13.252Z,108.00
2017-08-20T10:02:06.460Z,136.00
2017-08-20T10:03:06.367Z,148.00
2017-08-20T10:04:59.617Z,128.00
2017-08-20T10:05:59.465Z,144.00
2017-08-20T10:07:52.489Z,132.00
2017-08-20T10:08:52.426Z,104.00
2017-08-20T10:10:45.378Z,100.00
2017-08-20T10:11:45.364Z,104.00
2017-08-20T10:13:38.455Z,112.00
2017-08-20T10:14:38.303Z,108.00
2017-08-20T10:16:31.249Z,112.00
2017-08-20T10:17:31.249Z,108.00
2017-08-20T10:19:24.325Z,104.00
2017-08-20T10:20:24.228Z,112.00
2017-08-20T10:22:17.146Z,104.00
2017-08-20T10:23:17.135Z,104.00
2017-08-20T10:25:10.656Z,104.00
2017-08-20T10:26:10.575Z,112.00
2017-08-20T10:28:03.596Z,152.00
2017-08-20T10:29:03.526Z,136.00
2017-08-20T10:30:56.592Z,112.00
2017-08-20T10:31:56.500Z,112.00
2017-08-20T10:33:49.419Z,108.00
2017-08-20T10:34:49.416Z,108.00
2017-08-20T10:36:42.485Z,104.00
2017-08-20T10:37:42.373Z,108.00
2017-08-20T10:39:36.189Z,100.00
2017-08-20T10:40:35.824Z,100.00
2017-08-20T10:42:28.955Z,104.00
2017-08-20T10:43:28.765Z,104.00
2017-08-20T10:45:22.258Z,104.00
2017-08-20T10:46:22.235Z,108.00
2017-08-20T10:48:15.217Z,108.00
2017-08-20T10:49:15.223Z,112.00
2017-08-20T10:51:08.643Z,120.00
2017-08-20T10:52:08.637Z,116.00
2017-08-20T10:54:01.743Z,132.00
2017-08-20T10:55:01.567Z,132.00
2017-08-20T10:56:55.029Z,124.00
2017-08-20T10:57:55.012Z,120.00
2017-08-20T10:59:48.059Z,124.00
2017-08-20T11:00:47.983Z,120.00
2017-08-20T11:02:40.937Z,124.00
2017-08-20T11:03:40.956Z,128.00
2017-08-20T11:05:34.425Z,124.00
2017-08-20T11:06:34.391Z,116.00
2017-08-20T11:08:27.305Z,120.00
2017-08-20T11:09:27.304Z,112.00
2017-08-20T11:11:20.408Z,120.00
2017-08-20T11:12:20.316Z,112.00
2017-08-20T11:14:13.281Z,108.00
2017-08-20T11:15:13.256Z,112.00
2017-08-20T11:17:06.287Z,116.00
2017-08-20T11:18:06.272Z,120.00
2017-08-20T11:19:59.165Z,120.00
2017-08-20T11:20:59.176Z,124.00
2017-08-20T11:22:52.261Z,124.00
2017-08-20T11:23:52.127Z,124.00
2017-08-20T11:25:45.089Z,128.00
2017-08-20T11:26:45.529Z,128.00
2017-08-20T11:28:38.163Z,124.00
2017-08-20T11:29:38.010Z,128.00
2017-08-20T11:31:30.958Z,124.00
2017-08-20T11:32:30.967Z,128.00
2017-08-20T11:34:24.016Z,136.00
2017-08-20T11:35:23.906Z,140.00
2017-08-20T11:37:16.873Z,136.00
2017-08-20T11:38:16.867Z,132.00
2017-08-20T11:40:09.915Z,144.00
2017-08-20T11:41:09.867Z,140.00
2017-08-20T11:43:02.780Z,176.00
2017-08-20T11:44:02.774Z,492.00
2017-08-20T11:45:56.015Z,448.00
2017-08-20T11:46:55.746Z,424.00
2017-08-20T11:48:48.715Z,396.00
2017-08-20T11:49:48.681Z,392.00
2017-08-20T11:51:41.650Z,408.00
2017-08-20T11:52:41.642Z,416.00
2017-08-20T11:54:34.614Z,432.00
2017-08-20T11:55:34.576Z,444.00
2017-08-20T11:57:27.534Z,468.00
2017-08-20T11:58:27.510Z,484.00
2017-08-20T12:00:20.473Z,504.00
2017-08-20T12:01:20.449Z,512.00
2017-08-20T12:03:13.550Z,520.00
2017-08-20T12:04:14.388Z,528.00
2017-08-20T12:06:06.356Z,532.00
2017-08-20T12:07:06.377Z,536.00
2017-08-20T12:09:00.024Z,552.00
2017-08-20T12:09:59.784Z,556.00
2017-08-20T12:11:53.243Z,568.00
2017-08-20T12:12:53.235Z,576.00
2017-08-20T12:14:46.291Z,580.00
2017-08-20T12:15:46.167Z,584.00
2017-08-20T12:17:39.269Z,600.00
2017-08-20T12:18:39.110Z,624.00
2017-08-20T12:20:32.261Z,596.00
2017-08-20T12:21:32.058Z,600.00
2017-08-20T12:23:25.019Z,632.00
2017-08-20T12:24:25.014Z,620.00
2017-08-20T12:26:18.037Z,640.00
2017-08-20T12:27:18.041Z,728.00
2017-08-20T12:29:11.416Z,692.00
2017-08-20T12:30:11.388Z,648.00
2017-08-20T12:32:04.420Z,612.00
2017-08-20T12:33:04.337Z,592.00
2017-08-20T12:34:57.749Z,652.00
2017-08-20T12:35:57.734Z,600.00
2017-08-20T12:37:50.951Z,520.00
2017-08-20T12:38:50.672Z,512.00
2017-08-20T12:40:43.621Z,420.00
2017-08-20T12:41:43.611Z,468.00
2017-08-20T12:43:36.700Z,368.00
2017-08-20T12:44:36.557Z,384.00
2017-08-20T12:46:29.543Z,372.00
2017-08-20T12:47:29.516Z,356.00
2017-08-20T12:49:22.531Z,324.00
2017-08-20T12:50:22.440Z,316.00
2017-08-20T12:52:15.381Z,308.00
2017-08-20T12:53:15.373Z,312.00
2017-08-20T12:55:08.639Z,332.00
2017-08-20T12:56:08.336Z,340.00
2017-08-20T12:58:01.281Z,372.00
2017-08-20T12:59:01.290Z,392.00
2017-08-20T13:00:54.748Z,440.00
2017-08-20T13:01:54.708Z,468.00
2017-08-20T13:03:47.654Z,504.00
2017-08-20T13:04:47.641Z,516.00
2017-08-20T13:06:40.626Z,540.00
2017-08-20T13:07:40.575Z,540.00
2017-08-20T13:09:33.531Z,560.00
2017-08-20T13:10:33.516Z,560.00
2017-08-20T13:12:26.574Z,584.00
2017-08-20T13:13:28.887Z,588.00
2017-08-20T13:15:19.418Z,592.00
2017-08-20T13:16:19.426Z,584.00
2017-08-20T13:18:12.431Z,692.00
2017-08-20T13:19:12.387Z,720.00
2017-08-20T13:21:05.646Z,704.00
2017-08-20T13:22:05.314Z,704.00
2017-08-20T13:23:58.939Z,688.00
2017-08-20T13:24:58.754Z,560.00
2017-08-20T13:26:51.711Z,508.00
2017-08-20T13:27:51.698Z,484.00
2017-08-20T13:29:44.699Z,456.00
2017-08-20T13:30:44.657Z,444.00
2017-08-20T13:32:37.605Z,448.00
2017-08-20T13:33:37.601Z,440.00
2017-08-20T13:35:30.617Z,404.00
2017-08-20T13:36:30.534Z,388.00
2017-08-20T13:38:24.228Z,372.00
2017-08-20T13:39:23.483Z,364.00
2017-08-20T13:40:23.558Z,352.00
2017-08-20T13:41:23.526Z,348.00
2017-08-20T13:42:23.585Z,336.00
2017-08-20T13:43:23.572Z,332.00
2017-08-20T13:45:23.610Z,328.00
2017-08-20T13:46:23.635Z,332.00
2017-08-20T13:47:23.669Z,332.00
2017-08-20T13:48:23.683Z,336.00
2017-08-20T13:49:23.698Z,340.00
2017-08-20T13:50:24.019Z,344.00
2017-08-20T13:51:23.744Z,348.00
2017-08-20T13:52:23.801Z,356.00
2017-08-20T13:53:23.912Z,356.00
2017-08-20T13:54:23.827Z,364.00
2017-08-20T13:55:23.855Z,372.00
2017-08-20T13:56:24.177Z,396.00
2017-08-20T13:57:23.885Z,408.00
2017-08-20T14:01:24.027Z,520.00
2017-08-20T14:02:24.292Z,540.00
2017-08-20T14:03:24.078Z,560.00
2017-08-20T14:04:24.064Z,576.00
2017-08-20T14:05:24.062Z,580.00
2017-08-20T14:06:24.736Z,588.00
2017-08-20T14:07:24.115Z,604.00
2017-08-20T14:13:24.280Z,520.00
2017-08-20T14:14:24.731Z,476.00
2017-08-20T14:15:24.381Z,460.00
2017-08-20T14:16:24.372Z,588.00
2017-08-20T14:17:24.474Z,520.00
2017-08-20T14:18:24.394Z,476.00
2017-08-20T14:19:24.416Z,464.00
2017-08-20T14:20:24.410Z,552.00
2017-08-20T14:21:24.817Z,496.00
2017-08-20T14:22:24.478Z,464.00
2017-08-20T14:26:24.572Z,464.00
2017-08-20T14:27:24.850Z,468.00
2017-08-20T14:28:24.605Z,468.00
2017-08-20T14:29:24.671Z,484.00
2017-08-20T14:30:24.776Z,488.00
2017-08-20T14:31:25.688Z,476.00
2017-08-20T14:32:24.726Z,476.00
2017-08-20T14:33:24.839Z,484.00
2017-08-20T14:34:24.724Z,488.00
2017-08-20T14:36:24.757Z,516.00
2017-08-20T14:39:24.928Z,496.00
2017-08-20T14:40:24.985Z,480.00
2017-08-20T14:41:24.889Z,476.00
2017-08-20T14:43:25.011Z,468.00
2017-08-20T14:44:25.007Z,480.00
2017-08-20T14:45:25.309Z,496.00
2017-08-20T14:47:25.061Z,484.00
2017-08-20T14:48:25.110Z,496.00
2017-08-20T14:49:25.112Z,532.00
2017-08-20T14:50:25.167Z,572.00
2017-08-20T14:51:25.153Z,588.00
2017-08-20T14:52:25.117Z,612.00
2017-08-20T14:55:25.198Z,684.00
2017-08-20T14:56:25.587Z,736.00
2017-08-20T14:58:25.301Z,712.00
2017-08-20T14:59:25.347Z,876.00
2017-08-20T15:00:25.312Z,752.00
2017-08-20T15:01:25.353Z,804.00
2017-08-20T15:02:25.756Z,780.00
2017-08-20T15:03:25.411Z,840.00
2017-08-20T15:04:25.429Z,856.00
2017-08-20T15:05:25.450Z,868.00
2017-08-20T15:06:25.475Z,876.00
2017-08-20T15:07:25.476Z,888.00
2017-08-20T15:08:25.804Z,888.00
2017-08-20T15:11:25.549Z,948.00
2017-08-20T15:12:25.573Z,924.00
2017-08-20T15:13:25.605Z,944.00
2017-08-20T15:14:25.913Z,1028.00
2017-08-20T15:15:25.633Z,988.00
2017-08-20T15:16:25.680Z,1000.00
2017-08-20T15:17:25.680Z,1036.00
2017-08-20T15:18:25.714Z,992.00
2017-08-20T15:19:25.803Z,1044.00
2017-08-20T15:20:26.043Z,1004.00
2017-08-20T15:21:25.765Z,1032.00
2017-08-20T15:22:25.799Z,1072.00
2017-08-20T15:23:25.813Z,1128.00
2017-08-20T15:24:26.531Z,1212.00
2017-08-20T15:25:25.868Z,1320.00
2017-08-20T15:26:26.197Z,1332.00
2017-08-20T15:27:25.918Z,1340.00
2017-08-20T15:28:25.941Z,1356.00
2017-08-20T15:29:25.968Z,1364.00
2017-08-20T15:30:26.607Z,1360.00
2017-08-20T15:31:26.005Z,1272.00
2017-08-20T15:32:26.312Z,1340.00
2017-08-20T15:33:26.038Z,1340.00
2017-08-20T15:34:26.073Z,1352.00
2017-08-20T15:35:26.120Z,1328.00
2017-08-20T15:36:26.129Z,1304.00
2017-08-20T15:37:26.182Z,1288.00
2017-08-20T15:38:26.521Z,1284.00
2017-08-20T15:39:27.083Z,1280.00
2017-08-20T15:40:26.217Z,1212.00
2017-08-20T15:41:26.230Z,1164.00
2017-08-20T15:42:26.274Z,1136.00
2017-08-20T15:43:26.278Z,1092.00
2017-08-20T15:44:26.580Z,1052.00
2017-08-20T15:45:26.328Z,1104.00
2017-08-20T15:46:26.358Z,1072.00
2017-08-20T15:47:26.363Z,1048.00
2017-08-20T15:48:26.462Z,828.00
2017-08-20T15:49:26.407Z,908.00
2017-08-20T15:50:27.444Z,828.00
2017-08-20T15:51:26.512Z,776.00
2017-08-20T15:52:26.488Z,748.00
2017-08-20T15:53:26.529Z,820.00
2017-08-20T15:54:26.525Z,736.00
2017-08-20T15:55:26.585Z,840.00
2017-08-20T15:56:28.420Z,868.00
2017-08-20T15:57:26.609Z,948.00
2017-08-20T15:58:26.619Z,1000.00
2017-08-20T15:59:28.674Z,1064.00
2017-08-20T16:00:26.684Z,1104.00
2017-08-20T16:01:26.732Z,1116.00
2017-08-20T16:02:27.030Z,1168.00
2017-08-20T16:03:26.752Z,1160.00
2017-08-20T16:04:26.793Z,1196.00
2017-08-20T16:05:26.779Z,1304.00
2017-08-20T16:06:26.831Z,1380.00
2017-08-20T16:07:26.842Z,1372.00
2017-08-20T16:08:27.167Z,1376.00
2017-08-20T16:09:26.871Z,1372.00
2017-08-20T16:10:26.918Z,1380.00
2017-08-20T16:11:26.918Z,1340.00
2017-08-20T16:12:26.942Z,1324.00
2017-08-20T16:13:28.183Z,1256.00
2017-08-20T16:14:27.300Z,1332.00
2017-08-20T16:15:27.047Z,1308.00
2017-08-20T16:16:27.099Z,1296.00
2017-08-20T16:17:27.084Z,1280.00
2017-08-20T16:18:27.262Z,1296.00
2017-08-20T16:19:27.132Z,1292.00
2017-08-20T16:20:27.264Z,1276.00
2017-08-20T16:21:27.464Z,1244.00
2017-08-20T16:22:27.324Z,1196.00
2017-08-20T16:23:27.210Z,1152.00
2017-08-20T16:24:27.221Z,912.00
2017-08-20T16:26:27.421Z,900.00
2017-08-20T16:27:27.743Z,776.00
2017-08-20T16:28:27.355Z,760.00
2017-08-20T16:29:31.332Z,756.00
2017-08-20T16:30:27.417Z,724.00
2017-08-20T16:31:27.500Z,684.00
2017-08-20T16:32:28.648Z,692.00
2017-08-20T16:33:27.478Z,720.00
2017-08-20T16:36:33.993Z,784.00
2017-08-20T16:37:34.008Z,828.00
2017-08-20T16:39:26.928Z,956.00
2017-08-20T16:40:26.938Z,1060.00
2017-08-20T16:42:19.964Z,948.00
2017-08-20T16:43:19.867Z,692.00
2017-08-20T16:45:12.988Z,656.00
2017-08-20T16:46:12.824Z,628.00
2017-08-20T16:48:05.947Z,696.00
2017-08-20T16:49:05.744Z,676.00
2017-08-20T16:50:58.708Z,7584.00
2017-08-20T16:51:58.692Z,824.00
2017-08-20T16:53:51.650Z,5116.00
2017-08-20T16:54:51.646Z,6116.00
2017-08-20T16:56:44.605Z,2048.00
2017-08-20T16:57:44.588Z,628.00
2017-08-20T16:59:37.556Z,628.00
2017-08-20T17:00:37.539Z,560.00
2017-08-20T17:02:30.477Z,504.00
2017-08-20T17:03:30.501Z,512.00
2017-08-20T17:05:24.365Z,476.00
2017-08-20T17:06:23.903Z,456.00
2017-08-20T17:08:16.854Z,416.00
2017-08-20T17:09:16.855Z,428.00
2017-08-20T17:11:09.862Z,436.00
2017-08-20T17:12:09.793Z,432.00
2017-08-20T17:14:02.753Z,580.00
2017-08-20T17:15:02.742Z,2048.00
2017-08-20T17:16:56.214Z,5364.00
2017-08-20T17:17:56.187Z,656.00
2017-08-20T17:19:49.160Z,952.00
2017-08-20T17:20:49.119Z,704.00
2017-08-20T17:22:42.565Z,788.00
2017-08-20T17:23:42.551Z,1428.00
2017-08-20T17:25:35.513Z,552.00
2017-08-20T17:26:35.521Z,496.00
2017-08-20T17:28:28.753Z,448.00
2017-08-20T17:29:28.452Z,416.00
2017-08-20T17:30:28.479Z,380.00
2017-08-20T17:31:28.511Z,352.00
2017-08-20T17:32:28.520Z,324.00
2017-08-20T17:33:28.830Z,304.00
2017-08-20T17:34:28.586Z,300.00
2017-08-20T17:35:28.626Z,424.00
2017-08-20T17:36:28.628Z,324.00
2017-08-20T17:37:28.858Z,244.00
2017-08-20T17:38:28.705Z,236.00
2017-08-20T17:39:28.981Z,220.00
2017-08-20T17:40:29.378Z,232.00
2017-08-20T17:41:28.736Z,244.00
2017-08-20T17:42:28.765Z,252.00
2017-08-20T17:43:29.386Z,264.00
2017-08-20T17:44:28.827Z,268.00
2017-08-20T17:45:29.134Z,288.00
2017-08-20T17:46:28.869Z,252.00
2017-08-20T17:47:28.911Z,296.00
2017-08-20T17:48:28.892Z,808.00
2017-08-20T17:49:28.925Z,1216.00
2017-08-20T17:50:28.945Z,356.00
2017-08-20T17:51:29.237Z,196.00
2017-08-20T17:52:28.986Z,196.00
2017-08-20T17:53:29.000Z,204.00
2017-08-20T17:54:29.036Z,236.00
2017-08-20T17:55:29.069Z,240.00
2017-08-20T17:56:29.076Z,240.00
2017-08-20T17:57:29.389Z,232.00
2017-08-20T17:58:29.125Z,224.00
2017-08-20T17:59:29.179Z,212.00
2017-08-20T18:00:29.193Z,196.00
2017-08-20T18:01:29.195Z,192.00
2017-08-20T18:02:29.222Z,192.00
2017-08-20T18:03:29.569Z,188.00
2017-08-20T18:04:29.261Z,184.00
2017-08-20T18:05:29.290Z,180.00
2017-08-20T18:06:29.339Z,180.00
2017-08-20T18:07:29.342Z,168.00
2017-08-20T18:08:29.353Z,156.00
2017-08-20T18:09:29.402Z,148.00
2017-08-20T18:10:29.724Z,136.00
2017-08-20T18:11:29.865Z,136.00
2017-08-20T18:12:29.816Z,136.00
2017-08-20T18:13:29.477Z,140.00
2017-08-20T18:14:29.516Z,144.00
2017-08-20T18:15:30.173Z,148.00
2017-08-20T18:16:29.841Z,144.00
2017-08-20T18:17:29.572Z,132.00
2017-08-20T18:18:29.585Z,120.00
2017-08-20T18:19:29.619Z,112.00
2017-08-20T18:20:29.677Z,104.00
2017-08-20T18:21:29.658Z,100.00
2017-08-20T18:22:29.690Z,92.00
2017-08-20T18:23:50.720Z,84.00
2017-08-20T18:24:29.766Z,72.00
2017-08-20T18:25:29.765Z,56.00
2017-08-20T18:26:29.800Z,52.00
2017-08-20T18:27:29.816Z,40.00
2017-08-20T18:28:29.837Z,36.00
2017-08-20T18:29:29.844Z,28.00
2017-08-20T18:30:30.178Z,24.00
2017-08-20T18:32:29.944Z,20.00
2017-08-20T18:33:29.932Z,20.00
2017-08-20T18:34:29.973Z,16.00
2017-08-20T18:35:29.983Z,12.00
2017-08-20T18:36:30.023Z,20.00
2017-08-20T18:37:30.384Z,20.00
2017-08-20T18:38:30.059Z,20.00
2017-08-20T18:39:30.073Z,16.00
2017-08-20T18:40:30.095Z,16.00
2017-08-20T18:41:31.120Z,12.00
2017-08-20T18:42:30.142Z,12.00
2017-08-20T18:43:30.188Z,12.00
2017-08-20T18:44:30.478Z,12.00
2017-08-20T18:45:30.235Z,12.00
2017-08-20T18:46:30.239Z,12.00
2017-08-20T18:47:30.274Z,8.00
2017-08-20T18:48:30.302Z,12.00
2017-08-20T18:49:30.314Z,8.00
2017-08-20T18:50:30.341Z,12.00
2017-08-20T18:51:30.658Z,8.00
2017-08-20T18:52:30.433Z,8.00
2017-08-20T18:53:30.410Z,8.00
2017-08-20T18:55:30.476Z,4.00
2017-08-20T18:56:30.477Z,4.00
2017-08-20T18:57:30.496Z,0.00
2017-08-20T18:59:30.630Z,0.00
2017-08-20T19:00:30.570Z,0.00
2017-08-20T19:01:30.592Z,0.00
2017-08-20T19:02:30.608Z,0.00
2017-08-20T19:03:30.633Z,0.00
2017-08-20T19:04:30.691Z,0.00
2017-08-20T19:05:30.971Z,0.00
2017-08-20T19:06:30.757Z,0.00
2017-08-20T19:07:30.756Z,0.00
2017-08-20T19:08:30.751Z,0.00
2017-08-20T19:09:30.783Z,0.00
2017-08-20T19:10:30.806Z,0.00
2017-08-20T19:11:30.831Z,0.00
2017-08-20T19:12:31.150Z,0.00
2017-08-20T19:13:30.867Z,0.00
2017-08-20T19:14:30.895Z,0.00
2017-08-20T19:15:30.916Z,0.00
2017-08-20T19:16:30.942Z,0.00
2017-08-20T19:17:30.961Z,0.00
2017-08-20T19:18:31.290Z,0.00
2017-08-20T19:19:31.017Z,0.00
2017-08-20T19:20:31.032Z,0.00
2017-08-20T19:21:31.090Z,0.00
2017-08-20T19:22:31.077Z,0.00
2017-08-20T19:23:31.924Z,0.00
2017-08-20T19:24:31.427Z,0.00
2017-08-20T19:25:31.977Z,0.00
2017-08-20T19:26:31.170Z,0.00
2017-08-20T19:27:31.191Z,0.00
2017-08-20T19:28:31.225Z,0.00
2017-08-20T19:29:31.249Z,0.00
2017-08-20T19:30:31.566Z,0.00
2017-08-20T19:32:31.313Z,0.00
2017-08-20T19:33:31.342Z,0.00
2017-08-20T19:34:31.375Z,0.00
2017-08-20T19:35:31.391Z,0.00
2017-08-20T19:36:31.693Z,0.00
2017-08-20T19:37:31.435Z,0.00
2017-08-20T19:38:31.471Z,0.00
2017-08-20T19:39:31.484Z,0.00
2017-08-20T19:40:31.504Z,0.00
2017-08-20T19:41:31.542Z,0.00
2017-08-20T19:42:32.014Z,0.00
2017-08-20T19:43:31.627Z,0.00
2017-08-20T19:44:31.609Z,0.00
2017-08-20T19:45:31.613Z,0.00
2017-08-20T19:46:31.713Z,0.00
2017-08-20T19:47:31.683Z,0.00
2017-08-20T19:48:31.685Z,0.00
2017-08-20T19:49:32.002Z,0.00
2017-08-20T19:50:32.381Z,0.00
2017-08-20T19:51:31.771Z,0.00
2017-08-20T19:52:31.780Z,0.00
2017-08-20T19:53:31.805Z,0.00
2017-08-20T19:54:31.843Z,0.00
2017-08-20T19:55:32.146Z,0.00
2017-08-20T19:56:32.880Z,0.00
2017-08-20T19:57:31.891Z,0.00
2017-08-20T19:58:31.923Z,0.00
2017-08-20T19:59:31.969Z,0.00
2017-08-20T20:00:32.003Z,0.00
2017-08-20T20:01:31.992Z,0.00
2017-08-20T20:02:32.060Z,0.00
2017-08-20T20:03:32.039Z,0.00
2017-08-20T20:04:32.059Z,0.00
2017-08-20T20:05:32.086Z,0.00
2017-08-20T20:06:32.421Z,0.00
2017-08-20T20:07:32.161Z,0.00
2017-08-20T20:08:32.166Z,0.00
2017-08-20T20:09:32.173Z,8.00
2017-08-20T20:10:32.209Z,12.00
2017-08-20T20:11:32.235Z,12.00
2017-08-20T20:12:32.535Z,8.00
2017-08-20T20:13:32.284Z,8.00
2017-08-20T20:14:32.294Z,12.00
2017-08-20T20:15:32.312Z,12.00
2017-08-20T20:16:32.384Z,12.00
2017-08-20T20:17:32.362Z,12.00
2017-08-20T20:18:32.703Z,12.00
2017-08-20T20:19:32.403Z,12.00
2017-08-20T20:20:32.458Z,12.00
2017-08-20T20:21:32.477Z,12.00
2017-08-20T20:22:32.488Z,12.00
2017-08-20T20:23:32.567Z,8.00
2017-08-20T20:24:32.526Z,8.00
2017-08-20T20:25:32.839Z,8.00
2017-08-20T20:26:33.396Z,8.00
2017-08-20T20:27:32.598Z,12.00
2017-08-20T20:28:32.632Z,12.00
2017-08-20T20:29:32.682Z,12.00
2017-08-20T20:30:32.672Z,12.00
2017-08-20T20:31:33.410Z,12.00
2017-08-20T20:32:33.011Z,12.00
2017-08-20T20:33:32.754Z,12.00
2017-08-20T20:34:33.400Z,12.00
2017-08-20T20:35:32.801Z,12.00
2017-08-20T20:36:32.806Z,12.00
2017-08-20T20:37:32.830Z,12.00
2017-08-20T20:38:33.155Z,12.00
2017-08-20T20:39:32.904Z,12.00
2017-08-20T20:40:32.910Z,12.00
2017-08-20T20:41:32.945Z,12.00
2017-08-20T20:42:32.950Z,12.00
2017-08-20T20:43:33.009Z,12.00
2017-08-20T20:44:32.998Z,0.00
2017-08-20T20:45:33.300Z,0.00
2017-08-20T20:46:33.034Z,0.00
2017-08-20T20:47:33.095Z,0.00
2017-08-20T20:48:33.123Z,0.00
2017-08-20T20:49:33.115Z,0.00
2017-08-20T20:50:33.160Z,0.00
2017-08-20T20:51:33.492Z,0.00
2017-08-20T20:52:33.186Z,0.00
2017-08-20T20:53:33.276Z,0.00
2017-08-20T20:54:33.906Z,0.00
2017-08-20T20:55:33.283Z,0.00
2017-08-20T20:56:33.284Z,0.00
2017-08-20T20:57:33.599Z,0.00
2017-08-20T20:58:33.329Z,0.00
2017-08-20T20:59:33.349Z,0.00
2017-08-20T21:00:33.391Z,0.00
2017-08-20T21:01:33.389Z,0.00
2017-08-20T21:02:33.428Z,0.00
2017-08-20T21:03:33.444Z,0.00
2017-08-20T21:04:33.753Z,0.00
2017-08-20T21:05:33.473Z,0.00
2017-08-20T21:06:33.508Z,0.00
2017-08-20T21:07:33.523Z,0.00
2017-08-20T21:08:33.546Z,0.00
2017-08-20T21:09:33.567Z,0.00
2017-08-20T21:10:33.596Z,0.00
2017-08-20T21:11:33.946Z,0.00
2017-08-20T21:12:33.644Z,0.00
2017-08-20T21:13:33.690Z,0.00
2017-08-20T21:14:33.695Z,0.00
2017-08-20T21:15:33.715Z,0.00
2017-08-20T21:16:33.764Z,0.00
2017-08-20T21:17:33.753Z,0.00
2017-08-20T21:18:34.075Z,0.00
2017-08-20T21:19:33.799Z,0.00
2017-08-20T21:20:33.825Z,0.00
2017-08-20T21:21:33.846Z,0.00
2017-08-20T21:22:33.872Z,0.00
2017-08-20T21:23:33.890Z,0.00
2017-08-20T21:24:33.924Z,0.00
2017-08-20T21:25:34.257Z,0.00
2017-08-20T21:26:33.966Z,0.00
2017-08-20T21:27:33.983Z,0.00
2017-08-20T21:28:34.007Z,0.00
2017-08-20T21:29:34.032Z,0.00
2017-08-20T21:30:34.053Z,0.00
2017-08-20T21:31:34.080Z,0.00
2017-08-20T21:32:34.120Z,0.00
2017-08-20T21:33:34.172Z,0.00
2017-08-20T21:34:34.144Z,0.00
2017-08-20T21:35:34.171Z,0.00
2017-08-20T21:36:34.198Z,0.00
2017-08-20T21:37:34.507Z,0.00
2017-08-20T21:38:34.242Z,0.00
2017-08-20T21:39:34.272Z,0.00
2017-08-20T21:40:34.281Z,0.00
2017-08-20T21:41:34.311Z,0.00
2017-08-20T21:42:34.333Z,0.00
2017-08-20T21:43:34.724Z,0.00
2017-08-20T21:44:34.391Z,0.00
2017-08-20T21:45:34.406Z,0.00
2017-08-20T21:46:34.455Z,0.00
2017-08-20T21:47:34.504Z,0.00
2017-08-20T21:48:34.474Z,0.00
2017-08-20T21:49:34.803Z,0.00
2017-08-20T21:50:34.530Z,0.00
2017-08-20T21:51:34.565Z,0.00
2017-08-20T21:52:34.562Z,0.00
2017-08-20T21:53:34.592Z,0.00
2017-08-20T21:54:34.620Z,0.00
2017-08-20T21:55:34.930Z,0.00
2017-08-20T21:56:34.716Z,0.00
2017-08-20T21:57:34.677Z,0.00
2017-08-20T21:58:34.703Z,0.00
2017-08-20T21:59:34.729Z,0.00
2017-08-20T22:00:34.747Z,0.00
2017-08-20T22:01:35.067Z,0.00
2017-08-20T22:02:34.807Z,0.00
2017-08-20T22:03:34.818Z,0.00
2017-08-20T22:04:34.853Z,0.00
2017-08-20T22:05:34.866Z,0.00
2017-08-20T22:06:34.901Z,0.00
2017-08-20T22:07:34.936Z,0.00
2017-08-20T22:09:34.957Z,0.00
2017-08-20T22:10:34.987Z,0.00
2017-08-20T22:11:35.000Z,0.00
2017-08-20T22:12:35.036Z,0.00
2017-08-20T22:13:35.342Z,0.00
2017-08-20T22:14:35.068Z,0.00
2017-08-20T22:15:35.093Z,0.00
2017-08-20T22:16:35.117Z,0.00
2017-08-20T22:17:35.994Z,0.00
2017-08-20T22:18:35.210Z,0.00
2017-08-20T22:19:35.469Z,0.00
2017-08-20T22:20:35.259Z,0.00
2017-08-20T22:21:35.254Z,8.00
2017-08-20T22:22:35.262Z,12.00
2017-08-20T22:23:35.291Z,12.00
2017-08-20T22:24:35.302Z,12.00
2017-08-20T22:25:35.617Z,12.00
2017-08-20T22:26:35.372Z,12.00
2017-08-20T22:27:35.373Z,12.00
2017-08-20T22:28:35.406Z,12.00
2017-08-20T22:29:35.430Z,12.00
2017-08-20T22:30:35.440Z,12.00
2017-08-20T22:31:35.748Z,12.00
2017-08-20T22:32:35.490Z,12.00
2017-08-20T22:33:35.514Z,12.00
2017-08-20T22:34:35.535Z,12.00
2017-08-20T22:35:35.554Z,12.00
2017-08-20T22:36:35.579Z,12.00
2017-08-20T22:37:35.611Z,12.00
2017-08-20T22:38:35.907Z,12.00
2017-08-20T22:39:35.677Z,12.00
2017-08-20T22:40:35.671Z,12.00
2017-08-20T22:41:35.725Z,12.00
2017-08-20T22:42:36.468Z,12.00
2017-08-20T22:43:35.736Z,12.00
2017-08-20T22:44:35.759Z,12.00
2017-08-20T22:45:36.068Z,12.00
2017-08-20T22:46:35.805Z,12.00
2017-08-20T22:47:36.211Z,12.00
2017-08-20T22:48:35.851Z,12.00
2017-08-20T22:49:35.897Z,12.00
2017-08-20T22:50:35.899Z,12.00
2017-08-20T22:51:35.925Z,12.00
2017-08-20T22:52:36.226Z,12.00
2017-08-20T22:53:35.981Z,12.00
2017-08-20T22:54:35.997Z,12.00
2017-08-20T22:55:36.016Z,12.00
2017-08-20T22:56:36.038Z,12.00
2017-08-20T22:57:36.065Z,12.00
2017-08-20T22:58:36.091Z,12.00
2017-08-20T22:59:36.400Z,12.00
2017-08-20T23:00:36.668Z,12.00
2017-08-20T23:01:36.164Z,12.00
2017-08-20T23:02:36.182Z,12.00
2017-08-20T23:03:36.207Z,12.00
2017-08-20T23:04:37.015Z,12.00
2017-08-20T23:05:36.244Z,12.00
2017-08-20T23:06:36.558Z,8.00
2017-08-20T23:07:36.290Z,8.00
2017-08-20T23:08:36.313Z,8.00
2017-08-20T23:09:36.352Z,8.00
2017-08-20T23:10:36.357Z,0.00
2017-08-20T23:11:36.385Z,0.00
2017-08-20T23:12:36.411Z,0.00